This is the latest recevied weather packets stored in our database for station/object KD2RHT-13. If no packets are shown the sender has not sent any weather packets the latest 10 day(s).
| Time | Temp. | Humidity | Pressure | Rain* | Wind** | Luminosity | Snow |
|---|---|---|---|---|---|---|---|
| 1777840173 | 13.33° C | 49% | 1011.4 hPa | 0 mm | - | 200 W/m² | - |
| 1777839872 | 13.33° C | 51% | 1011.7 hPa | 0 mm | - | 253 W/m² | - |
| 1777839570 | 13.89° C | 50% | 1011.7 hPa | 0 mm | - | 167 W/m² | - |
| 1777839266 | 13.89° C | 47% | 1011.7 hPa | 0 mm | - | 253 W/m² | - |
| 1777838964 | 13.89° C | 48% | 1011.7 hPa | 0 mm | - | 384 W/m² | - |
| 1777838660 | 13.89° C | 48% | 1011.7 hPa | 0 mm | - | 540 W/m² | - |
| 1777838357 | 13.89° C | 48% | 1011.7 hPa | 0 mm | - | 321 W/m² | - |
| 1777838054 | 12.78° C | 49% | 1011.7 hPa | 0 mm | - | 370 W/m² | - |
| 1777837751 | 12.78° C | 46% | 1011.7 hPa | 0 mm | - | 186 W/m² | - |
| 1777837448 | 12.78° C | 45% | 1012.1 hPa | 0 mm | - | 194 W/m² | - |
| 1777837143 | 12.78° C | 48% | 1012.1 hPa | 0 mm | - | 208 W/m² | - |
| 1777836839 | 13.33° C | 48% | 1012.1 hPa | 0 mm | - | 224 W/m² | - |
| 1777836534 | 13.33° C | 51% | 1012.1 hPa | 0 mm | - | 243 W/m² | - |
| 1777836230 | 13.33° C | 49% | 1012.1 hPa | 0 mm | - | 189 W/m² | - |
| 1777835927 | 13.33° C | 50% | 1012.1 hPa | 0 mm | - | 205 W/m² | - |
| 1777835624 | 13.33° C | 51% | 1012.1 hPa | 0 mm | - | 229 W/m² | - |
| 1777835321 | 13.89° C | 48% | 1012.4 hPa | 0 mm | - | 300 W/m² | - |
| 1777835018 | 15° C | 46% | 1012.1 hPa | 0 mm | - | 280 W/m² | - |
| 1777834715 | 13.89° C | 53% | 1012.1 hPa | 0 mm | - | 798 W/m² | - |
| 1777834411 | 13.33° C | 49% | 1012.4 hPa | 0 mm | - | 275 W/m² | - |
| 1777834106 | 13.33° C | 47% | 1012.1 hPa | 0 mm | - | 294 W/m² | - |
| 1777833802 | 13.89° C | 45% | 1012.1 hPa | 0 mm | - | 309 W/m² | - |
| 1777833498 | 13.89° C | 44% | 1012.4 hPa | 0 mm | - | 383 W/m² | - |
| 1777833196 | 13.33° C | 48% | 1012.4 hPa | 0 mm | - | 496 W/m² | - |
| 1777832893 | 13.89° C | 44% | 1012.4 hPa | 0 mm | - | 707 W/m² | - |
* Rain latest hour (hover to see other rain measurements)
** Current wind speed in m/s (hover to see current wind gust speed)